createdAt,value
2022-10-14T00:01:12.130Z,100.00
2022-10-14T00:03:39.481Z,100.00
2022-10-14T00:06:07.620Z,100.00
2022-10-14T00:08:34.721Z,100.00
2022-10-14T00:11:06.780Z,100.00
2022-10-14T00:13:34.628Z,100.00
2022-10-14T00:16:01.728Z,100.00
2022-10-14T00:18:28.717Z,100.00
2022-10-14T00:20:59.355Z,100.00
2022-10-14T00:23:26.351Z,100.00
2022-10-14T00:25:53.345Z,100.00
2022-10-14T00:28:21.584Z,100.00
2022-10-14T00:30:58.662Z,100.00
2022-10-14T00:33:25.460Z,100.00
2022-10-14T00:35:55.315Z,100.00
2022-10-14T00:38:26.372Z,100.00
2022-10-14T00:40:53.463Z,100.00
2022-10-14T00:43:22.482Z,100.00
2022-10-14T00:45:49.330Z,100.00
2022-10-14T00:48:16.969Z,100.00
2022-10-14T00:50:47.158Z,100.00
2022-10-14T00:53:14.064Z,100.00
2022-10-14T00:55:42.547Z,100.00
2022-10-14T00:58:11.600Z,100.00
2022-10-14T01:00:39.939Z,100.00
2022-10-14T01:03:09.526Z,100.00
2022-10-14T01:05:41.192Z,100.00
2022-10-14T01:08:10.992Z,100.00
2022-10-14T01:10:53.245Z,100.00
2022-10-14T01:13:29.549Z,100.00
2022-10-14T01:15:57.522Z,100.00
2022-10-14T01:18:33.313Z,100.00
2022-10-14T01:20:59.927Z,100.00
2022-10-14T01:23:45.360Z,100.00
2022-10-14T01:26:20.852Z,100.00
2022-10-14T01:28:47.522Z,100.00
2022-10-14T01:31:19.696Z,100.00
2022-10-14T01:33:50.678Z,100.00
2022-10-14T01:36:23.270Z,100.00
2022-10-14T01:39:02.327Z,100.00
2022-10-14T01:41:31.333Z,100.00
2022-10-14T01:44:02.385Z,100.00
2022-10-14T01:46:29.624Z,100.00
2022-10-14T01:49:02.199Z,100.00
2022-10-14T01:51:31.604Z,100.00
2022-10-14T01:54:02.713Z,100.00
2022-10-14T01:56:31.088Z,100.00
2022-10-14T01:58:59.466Z,100.00
2022-10-14T02:01:26.389Z,100.00
2022-10-14T02:03:53.060Z,100.00
2022-10-14T02:06:29.914Z,100.00
2022-10-14T02:09:08.588Z,100.00
2022-10-14T02:11:53.715Z,100.00
2022-10-14T02:14:32.754Z,100.00
2022-10-14T02:17:21.972Z,100.00
2022-10-14T02:20:03.864Z,100.00
2022-10-14T02:22:35.591Z,100.00
2022-10-14T02:25:07.615Z,100.00
2022-10-14T02:27:35.611Z,100.00
2022-10-14T02:30:04.815Z,100.00
2022-10-14T02:32:32.933Z,100.00
2022-10-14T02:34:59.924Z,100.00
2022-10-14T02:37:28.560Z,100.00
2022-10-14T02:40:00.003Z,100.00
2022-10-14T02:42:27.579Z,100.00
2022-10-14T02:44:57.072Z,100.00
2022-10-14T02:47:24.198Z,100.00
2022-10-14T02:49:51.441Z,100.00
2022-10-14T02:52:18.779Z,100.00
2022-10-14T02:54:45.750Z,100.00
2022-10-14T02:57:12.422Z,100.00
2022-10-14T02:59:39.763Z,100.00
2022-10-14T03:02:07.648Z,100.00
2022-10-14T03:04:36.235Z,100.00
2022-10-14T03:07:02.947Z,100.00
2022-10-14T03:09:32.677Z,100.00
2022-10-14T03:11:59.758Z,100.00
2022-10-14T03:14:26.440Z,100.00
2022-10-14T03:16:53.521Z,100.00
2022-10-14T03:19:23.282Z,100.00
2022-10-14T03:21:53.364Z,100.00
2022-10-14T03:24:20.771Z,100.00
2022-10-14T03:26:56.631Z,100.00
2022-10-14T03:29:25.832Z,100.00
2022-10-14T03:32:10.320Z,100.00
2022-10-14T03:34:55.358Z,100.00
2022-10-14T03:37:24.590Z,100.00
2022-10-14T03:39:54.374Z,100.00
2022-10-14T03:42:21.666Z,100.00
2022-10-14T03:44:49.806Z,100.00
2022-10-14T03:47:21.565Z,100.00
2022-10-14T03:49:48.265Z,100.00
2022-10-14T03:52:26.762Z,100.00
2022-10-14T03:55:06.484Z,100.00
2022-10-14T03:57:34.672Z,100.00
2022-10-14T04:00:01.694Z,100.00
2022-10-14T04:02:40.757Z,100.00
2022-10-14T04:05:12.817Z,100.00
2022-10-14T04:07:41.142Z,100.00
2022-10-14T04:10:08.486Z,100.00
2022-10-14T04:12:37.108Z,100.00
2022-10-14T04:15:08.656Z,100.00
2022-10-14T04:17:51.000Z,100.00
2022-10-14T04:20:17.938Z,100.00
2022-10-14T04:22:46.324Z,100.00
2022-10-14T04:25:15.760Z,100.00
2022-10-14T04:27:42.363Z,100.00
2022-10-14T04:30:09.824Z,100.00
2022-10-14T04:32:48.202Z,100.00
2022-10-14T04:35:16.347Z,100.00
2022-10-14T04:37:46.272Z,100.00
2022-10-14T04:40:24.427Z,100.00
2022-10-14T04:42:54.080Z,100.00
2022-10-14T04:45:24.162Z,100.00
2022-10-14T04:47:56.802Z,100.00
2022-10-14T04:50:24.643Z,100.00
2022-10-14T04:53:13.496Z,100.00
2022-10-14T04:55:53.652Z,100.00
2022-10-14T04:58:20.375Z,100.00
2022-10-14T05:00:49.734Z,100.00
2022-10-14T05:03:30.040Z,100.00
2022-10-14T05:05:58.699Z,100.00
2022-10-14T05:08:25.680Z,100.00
2022-10-14T05:10:55.763Z,100.00
2022-10-14T05:13:46.629Z,100.00
2022-10-14T05:16:15.333Z,100.00
2022-10-14T05:18:41.953Z,100.00
2022-10-14T05:21:10.629Z,100.00
2022-10-14T05:23:57.462Z,100.00
2022-10-14T05:26:26.323Z,100.00
2022-10-14T05:28:54.068Z,100.00
2022-10-14T05:31:21.538Z,100.00
2022-10-14T05:33:59.930Z,100.00
2022-10-14T05:36:26.584Z,100.00
2022-10-14T05:38:56.419Z,100.00
2022-10-14T05:41:23.343Z,100.00
2022-10-14T05:43:50.040Z,100.00
2022-10-14T05:46:16.998Z,100.00
2022-10-14T05:48:48.810Z,100.00
2022-10-14T05:51:16.598Z,100.00
2022-10-14T05:53:43.629Z,100.00
2022-10-14T05:56:15.564Z,100.00
2022-10-14T05:58:42.329Z,100.00
2022-10-14T06:01:10.271Z,100.00
2022-10-14T06:03:39.899Z,100.00
2022-10-14T06:06:08.220Z,100.00
2022-10-14T06:08:34.795Z,100.00
2022-10-14T06:11:03.134Z,100.00
2022-10-14T06:13:29.769Z,100.00
2022-10-14T06:15:56.970Z,100.00
2022-10-14T06:18:23.792Z,100.00
2022-10-14T06:20:52.028Z,100.00
2022-10-14T06:23:18.646Z,100.00
2022-10-14T06:25:45.267Z,99.50
2022-10-14T06:28:12.021Z,100.00
2022-10-14T06:30:38.582Z,99.91
2022-10-14T06:33:05.401Z,99.16
2022-10-14T06:35:32.003Z,97.67
2022-10-14T06:37:58.763Z,98.49
2022-10-14T06:40:25.503Z,96.79
2022-10-14T06:42:53.653Z,97.30
2022-10-14T06:45:20.222Z,97.24
2022-10-14T06:47:46.974Z,97.34
2022-10-14T06:50:15.524Z,98.12
2022-10-14T06:52:44.730Z,99.14
2022-10-14T06:55:11.381Z,97.38
2022-10-14T06:57:37.959Z,95.21
2022-10-14T07:00:05.117Z,95.37
2022-10-14T07:02:34.654Z,94.75
2022-10-14T07:05:01.233Z,95.94
2022-10-14T07:07:27.897Z,95.40
2022-10-14T07:09:55.814Z,95.91
2022-10-14T07:12:23.078Z,96.14
2022-10-14T07:14:49.793Z,94.45
2022-10-14T07:17:16.394Z,95.22
2022-10-14T07:19:43.000Z,95.13
2022-10-14T07:22:09.656Z,94.95
2022-10-14T07:24:37.030Z,93.00
2022-10-14T07:29:35.405Z,95.18
2022-10-14T07:32:02.111Z,95.34
2022-10-14T07:34:28.745Z,95.96
2022-10-14T07:36:55.365Z,95.59
2022-10-14T07:39:22.064Z,98.21
2022-10-14T07:41:48.797Z,96.00
2022-10-14T07:44:16.887Z,93.22
2022-10-14T07:46:44.494Z,91.59
2022-10-14T07:49:12.479Z,89.21
2022-10-14T07:51:40.091Z,84.81
2022-10-14T07:54:11.041Z,85.56
2022-10-14T07:56:39.593Z,81.10
2022-10-14T07:59:06.337Z,78.07
2022-10-14T08:01:33.129Z,78.29
2022-10-14T08:03:59.783Z,74.07
2022-10-14T08:06:26.643Z,73.18
2022-10-14T08:08:53.733Z,72.76
2022-10-14T08:11:24.646Z,71.16
2022-10-14T08:13:51.684Z,67.80
2022-10-14T08:16:36.926Z,69.02
2022-10-14T08:19:10.985Z,69.27
2022-10-14T08:21:41.741Z,70.76
2022-10-14T08:24:08.500Z,71.17
2022-10-14T08:26:39.627Z,70.63
2022-10-14T08:29:08.155Z,71.10
2022-10-14T08:31:34.726Z,73.78
2022-10-14T08:34:01.800Z,73.14
2022-10-14T08:36:28.928Z,74.07
2022-10-14T08:38:55.705Z,77.40
2022-10-14T08:41:28.513Z,76.34
2022-10-14T08:44:04.164Z,75.93
2022-10-14T08:46:33.568Z,73.88
2022-10-14T08:49:05.367Z,73.78
2022-10-14T08:51:32.964Z,73.92
2022-10-14T08:54:06.314Z,72.48
2022-10-14T08:56:37.228Z,69.97
2022-10-14T08:59:10.384Z,70.64
2022-10-14T09:01:44.401Z,70.11
2022-10-14T09:04:13.723Z,68.21
2022-10-14T09:06:45.278Z,66.92
2022-10-14T09:09:15.171Z,63.81
2022-10-14T09:11:44.842Z,65.66
2022-10-14T09:14:19.685Z,65.24
2022-10-14T09:16:50.415Z,61.88
2022-10-14T09:19:23.086Z,61.31
2022-10-14T09:21:53.294Z,59.61
2022-10-14T09:24:23.446Z,60.62
2022-10-14T09:26:55.056Z,60.11
2022-10-14T09:29:32.898Z,60.51
2022-10-14T09:32:02.370Z,60.60
2022-10-14T09:34:30.415Z,58.74
2022-10-14T09:36:58.895Z,59.64
2022-10-14T09:39:25.606Z,58.27
2022-10-14T09:41:53.526Z,57.89
2022-10-14T09:44:25.864Z,58.70
2022-10-14T09:46:55.633Z,59.37
2022-10-14T09:49:32.344Z,57.38
2022-10-14T09:51:58.956Z,59.44
2022-10-14T09:54:28.201Z,55.92
2022-10-14T09:57:08.590Z,57.17
2022-10-14T09:59:56.318Z,56.06
2022-10-14T10:02:25.037Z,55.77
2022-10-14T10:04:52.525Z,56.56
2022-10-14T10:07:27.963Z,57.08
2022-10-14T10:09:55.405Z,57.39
2022-10-14T10:12:23.262Z,58.47
2022-10-14T10:14:57.425Z,57.92
2022-10-14T10:17:24.719Z,57.24
2022-10-14T10:20:06.111Z,57.48
2022-10-14T10:22:36.692Z,55.92
2022-10-14T10:25:06.650Z,55.80
2022-10-14T10:27:36.564Z,54.07
2022-10-14T10:30:18.870Z,53.27
2022-10-14T10:32:57.536Z,52.68
2022-10-14T10:35:26.955Z,51.99
2022-10-14T10:38:00.649Z,52.30
2022-10-14T10:40:32.809Z,51.34
2022-10-14T10:43:18.670Z,51.45
2022-10-14T10:45:45.271Z,50.41
2022-10-14T10:48:15.758Z,50.88
2022-10-14T10:50:57.841Z,49.08
2022-10-14T10:53:29.750Z,49.58
2022-10-14T10:56:04.323Z,50.26
2022-10-14T10:58:55.067Z,50.73
2022-10-14T11:01:26.380Z,48.75
2022-10-14T11:03:53.620Z,48.78
2022-10-14T11:06:40.226Z,49.71
2022-10-14T11:09:32.433Z,49.17
2022-10-14T11:12:15.688Z,48.12
2022-10-14T11:14:47.012Z,47.70
2022-10-14T11:17:35.176Z,48.21
2022-10-14T11:20:07.846Z,48.26
2022-10-14T11:22:50.894Z,46.83
2022-10-14T11:25:38.572Z,45.67
2022-10-14T11:28:10.895Z,46.33
2022-10-14T11:30:43.287Z,45.57
2022-10-14T11:33:12.974Z,45.73
2022-10-14T11:35:42.315Z,44.37
2022-10-14T11:38:15.916Z,45.06
2022-10-14T11:40:50.897Z,44.94
2022-10-14T11:43:32.820Z,44.24
2022-10-14T11:46:11.063Z,44.88
2022-10-14T11:48:56.371Z,44.24
2022-10-14T11:51:22.949Z,43.33
2022-10-14T11:54:01.876Z,42.63
2022-10-14T11:56:29.640Z,43.53
2022-10-14T11:59:20.316Z,41.98
2022-10-14T12:01:48.548Z,43.14
2022-10-14T12:04:24.626Z,42.21
2022-10-14T12:06:55.794Z,43.44
2022-10-14T12:09:26.886Z,42.73
2022-10-14T12:11:57.152Z,43.37
2022-10-14T12:14:23.701Z,43.33
2022-10-14T12:16:53.177Z,43.97
2022-10-14T12:19:24.204Z,45.13
2022-10-14T12:21:53.912Z,44.19
2022-10-14T12:24:24.190Z,43.02
2022-10-14T12:26:52.293Z,43.72
2022-10-14T12:29:20.614Z,42.43
2022-10-14T12:31:51.744Z,43.20
2022-10-14T12:34:26.915Z,43.23
2022-10-14T12:36:53.557Z,42.99
2022-10-14T12:39:20.125Z,39.65
2022-10-14T12:41:55.358Z,40.45
2022-10-14T12:44:23.076Z,40.06
2022-10-14T12:46:51.771Z,40.86
2022-10-14T12:49:30.188Z,40.38
2022-10-14T12:51:57.945Z,41.31
2022-10-14T12:54:26.148Z,40.68
2022-10-14T12:57:06.533Z,41.05
2022-10-14T12:59:37.962Z,41.18
2022-10-14T13:02:18.537Z,41.46
2022-10-14T13:04:50.223Z,42.96
2022-10-14T13:07:35.703Z,45.14
2022-10-14T13:10:29.861Z,42.03
2022-10-14T13:12:56.529Z,42.87
2022-10-14T13:15:35.147Z,43.10
2022-10-14T13:18:20.257Z,43.71
2022-10-14T13:20:46.898Z,45.16
2022-10-14T13:23:31.527Z,45.08
2022-10-14T13:26:25.337Z,44.56
2022-10-14T13:29:10.946Z,45.42
2022-10-14T13:31:45.660Z,45.38
2022-10-14T13:34:12.776Z,45.63
2022-10-14T13:36:51.021Z,44.95
2022-10-14T13:39:18.038Z,45.68
2022-10-14T13:41:46.797Z,46.41
2022-10-14T13:44:13.552Z,46.76
2022-10-14T13:46:45.165Z,48.25
2022-10-14T13:49:18.682Z,47.82
2022-10-14T13:51:48.136Z,47.74
2022-10-14T13:54:20.574Z,48.44
2022-10-14T14:02:44.136Z,49.35
2022-10-14T14:05:16.203Z,50.63
2022-10-14T14:10:30.413Z,52.20
2022-10-14T14:13:05.287Z,51.83
2022-10-14T14:15:31.928Z,53.46
2022-10-14T14:17:58.610Z,54.22
2022-10-14T14:20:29.131Z,55.19
2022-10-14T14:22:57.844Z,55.65
2022-10-14T14:25:35.475Z,57.11
2022-10-14T14:28:13.419Z,57.54
2022-10-14T14:30:43.209Z,57.36
2022-10-14T14:33:18.153Z,57.51
2022-10-14T14:35:53.977Z,56.58
2022-10-14T14:38:34.356Z,56.02
2022-10-14T14:41:04.889Z,56.28
2022-10-14T14:43:35.865Z,56.56
2022-10-14T14:46:04.336Z,55.58
2022-10-14T14:48:31.209Z,56.04
2022-10-14T14:50:58.653Z,57.40
2022-10-14T14:53:29.670Z,57.30
2022-10-14T14:55:56.321Z,57.30
2022-10-14T14:58:28.831Z,57.69
2022-10-14T15:00:55.684Z,57.84
2022-10-14T15:03:23.783Z,58.75
2022-10-14T15:05:51.418Z,58.10
2022-10-14T15:08:23.008Z,58.39
2022-10-14T15:10:50.830Z,59.20
2022-10-14T15:13:29.223Z,58.84
2022-10-14T15:15:55.939Z,63.00
2022-10-14T15:18:28.850Z,67.68
2022-10-14T15:21:15.908Z,68.27
2022-10-14T15:23:46.023Z,72.31
2022-10-14T15:26:27.597Z,73.68
2022-10-14T15:29:13.849Z,74.57
2022-10-14T15:31:41.664Z,72.94
2022-10-14T15:34:22.249Z,73.81
2022-10-14T15:36:49.948Z,75.11
2022-10-14T15:39:16.747Z,73.66
2022-10-14T15:41:44.003Z,73.71
2022-10-14T15:44:10.641Z,76.15
2022-10-14T15:46:56.281Z,74.98
2022-10-14T15:49:27.529Z,76.47
2022-10-14T15:51:54.089Z,77.27
2022-10-14T15:54:27.180Z,78.37
2022-10-14T15:56:57.589Z,80.46
2022-10-14T15:59:24.435Z,81.84
2022-10-14T16:01:51.348Z,82.68
2022-10-14T16:04:19.933Z,82.90
2022-10-14T16:06:46.951Z,85.29
2022-10-14T16:09:13.556Z,88.46
2022-10-14T16:11:40.188Z,94.10
2022-10-14T16:14:09.315Z,100.00
2022-10-14T16:16:43.974Z,100.00
2022-10-14T16:19:10.676Z,100.00
2022-10-14T16:21:37.946Z,100.00
2022-10-14T16:24:05.330Z,100.00
2022-10-14T16:26:32.083Z,100.00
2022-10-14T16:29:00.434Z,100.00
2022-10-14T16:31:27.055Z,100.00
2022-10-14T16:33:56.752Z,100.00
2022-10-14T16:36:26.136Z,100.00
2022-10-14T16:38:54.381Z,100.00
2022-10-14T16:41:21.361Z,100.00
2022-10-14T16:43:48.114Z,100.00
2022-10-14T16:46:17.431Z,100.00
2022-10-14T16:48:46.517Z,100.00
2022-10-14T16:51:13.216Z,100.00
2022-10-14T16:53:45.167Z,100.00
2022-10-14T16:56:31.596Z,100.00
2022-10-14T16:58:58.798Z,100.00
2022-10-14T17:01:25.477Z,100.00
2022-10-14T17:03:52.093Z,100.00
2022-10-14T17:06:23.248Z,100.00
2022-10-14T17:08:50.988Z,100.00
2022-10-14T17:11:18.012Z,100.00
2022-10-14T17:13:44.643Z,100.00
2022-10-14T17:16:11.497Z,100.00
2022-10-14T17:18:38.642Z,100.00
2022-10-14T17:21:10.597Z,100.00
2022-10-14T17:23:38.589Z,100.00
2022-10-14T17:26:05.431Z,100.00
2022-10-14T17:28:32.736Z,100.00
2022-10-14T17:31:01.004Z,100.00
2022-10-14T17:33:27.624Z,100.00
2022-10-14T17:35:57.747Z,100.00
2022-10-14T17:38:25.716Z,100.00
2022-10-14T17:40:52.665Z,100.00
2022-10-14T17:43:20.490Z,100.00
2022-10-14T17:45:47.115Z,100.00
2022-10-14T17:48:13.998Z,100.00
2022-10-14T17:50:40.754Z,100.00
2022-10-14T17:53:07.515Z,100.00
2022-10-14T17:55:37.018Z,100.00
2022-10-14T17:58:03.674Z,100.00
2022-10-14T18:00:30.415Z,100.00
2022-10-14T18:02:57.032Z,100.00
2022-10-14T18:05:24.560Z,100.00
2022-10-14T18:07:51.447Z,100.00
2022-10-14T18:10:18.174Z,100.00
2022-10-14T18:12:44.771Z,100.00
2022-10-14T18:15:11.299Z,100.00
2022-10-14T18:17:37.869Z,100.00
2022-10-14T18:20:05.498Z,100.00
2022-10-14T18:22:32.691Z,100.00
2022-10-14T18:24:59.383Z,100.00
2022-10-14T18:27:27.253Z,100.00
2022-10-14T18:29:53.845Z,100.00
2022-10-14T18:32:20.641Z,100.00
2022-10-14T18:34:47.422Z,100.00
2022-10-14T18:37:14.013Z,100.00
2022-10-14T18:39:40.577Z,100.00
2022-10-14T18:42:07.209Z,100.00
2022-10-14T18:44:33.780Z,100.00
2022-10-14T18:47:00.366Z,100.00
2022-10-14T18:49:26.891Z,100.00
2022-10-14T18:51:55.137Z,100.00
2022-10-14T18:54:23.726Z,100.00
2022-10-14T18:56:50.768Z,100.00
2022-10-14T18:59:19.210Z,100.00
2022-10-14T19:01:46.515Z,100.00
2022-10-14T19:04:14.042Z,100.00
2022-10-14T19:06:41.178Z,100.00
2022-10-14T19:09:12.439Z,100.00
2022-10-14T19:11:39.409Z,100.00
2022-10-14T19:14:06.406Z,100.00
2022-10-14T19:16:34.000Z,100.00
2022-10-14T19:19:07.979Z,100.00
2022-10-14T19:21:34.777Z,100.00
2022-10-14T19:24:01.999Z,100.00
2022-10-14T19:26:31.115Z,100.00
2022-10-14T19:28:58.927Z,100.00
2022-10-14T19:31:26.903Z,100.00
2022-10-14T19:33:54.353Z,100.00
2022-10-14T19:36:21.534Z,100.00
2022-10-14T19:38:51.179Z,100.00
2022-10-14T19:41:18.544Z,100.00
2022-10-14T19:43:45.145Z,100.00
2022-10-14T19:46:12.603Z,100.00
2022-10-14T19:48:39.204Z,100.00
2022-10-14T19:51:09.219Z,100.00
2022-10-14T19:53:36.713Z,100.00
2022-10-14T19:56:04.408Z,100.00
2022-10-14T19:58:31.044Z,100.00
2022-10-14T20:00:57.962Z,100.00
2022-10-14T20:03:24.579Z,100.00
2022-10-14T20:06:00.498Z,100.00
2022-10-14T20:08:27.398Z,100.00
2022-10-14T20:10:54.018Z,100.00
2022-10-14T20:13:21.570Z,100.00
2022-10-14T20:15:55.381Z,100.00
2022-10-14T20:18:22.460Z,100.00
2022-10-14T20:20:49.587Z,100.00
2022-10-14T20:23:16.656Z,100.00
2022-10-14T20:25:43.312Z,100.00
2022-10-14T20:28:09.912Z,100.00
2022-10-14T20:30:38.643Z,100.00
2022-10-14T20:33:05.482Z,100.00
2022-10-14T20:35:32.138Z,100.00
2022-10-14T20:37:58.745Z,100.00
2022-10-14T20:40:25.362Z,100.00
2022-10-14T20:42:52.371Z,100.00
2022-10-14T20:45:19.007Z,100.00
2022-10-14T20:47:52.598Z,100.00
2022-10-14T20:50:21.569Z,100.00
2022-10-14T20:52:48.571Z,100.00
2022-10-14T20:55:15.219Z,100.00
2022-10-14T20:57:41.809Z,100.00
2022-10-14T21:00:08.630Z,100.00
2022-10-14T21:02:35.404Z,100.00
2022-10-14T21:05:01.976Z,100.00
2022-10-14T21:07:28.922Z,100.00
2022-10-14T21:09:55.559Z,100.00
2022-10-14T21:12:22.508Z,100.00
2022-10-14T21:14:49.561Z,100.00
2022-10-14T21:17:16.169Z,100.00
2022-10-14T21:19:42.710Z,100.00
2022-10-14T21:22:09.873Z,100.00
2022-10-14T21:24:40.868Z,100.00
2022-10-14T21:27:07.694Z,100.00
2022-10-14T21:29:34.337Z,100.00
2022-10-14T21:32:02.577Z,100.00
2022-10-14T21:34:30.210Z,100.00
2022-10-14T21:36:57.280Z,100.00
2022-10-14T21:39:24.349Z,100.00
2022-10-14T21:41:51.202Z,100.00
2022-10-14T21:44:19.780Z,100.00
2022-10-14T21:46:46.686Z,100.00
2022-10-14T21:49:13.316Z,100.00
2022-10-14T21:51:39.994Z,100.00
2022-10-14T21:54:06.573Z,100.00
2022-10-14T21:56:33.457Z,100.00
2022-10-14T21:59:00.156Z,100.00
2022-10-14T22:01:28.459Z,100.00
2022-10-14T22:04:03.982Z,100.00
2022-10-14T22:06:35.823Z,100.00
2022-10-14T22:09:04.525Z,100.00
2022-10-14T22:11:38.427Z,100.00
2022-10-14T22:14:05.877Z,100.00
2022-10-14T22:16:32.984Z,100.00
2022-10-14T22:19:00.653Z,100.00
2022-10-14T22:21:27.760Z,100.00
2022-10-14T22:23:54.488Z,100.00
2022-10-14T22:26:22.965Z,100.00
2022-10-14T22:28:50.175Z,100.00
2022-10-14T22:31:18.529Z,100.00
2022-10-14T22:33:45.501Z,100.00
2022-10-14T22:36:19.461Z,100.00
2022-10-14T22:38:49.983Z,100.00
2022-10-14T22:41:16.949Z,100.00
2022-10-14T22:44:01.803Z,100.00
2022-10-14T22:46:29.957Z,100.00
2022-10-14T22:48:57.143Z,100.00
2022-10-14T22:51:28.362Z,100.00
2022-10-14T22:53:55.143Z,100.00
2022-10-14T22:56:23.068Z,100.00
2022-10-14T22:58:56.809Z,100.00
2022-10-14T23:01:23.722Z,100.00
2022-10-14T23:03:50.574Z,100.00
2022-10-14T23:06:17.434Z,100.00
2022-10-14T23:08:44.104Z,100.00
2022-10-14T23:11:14.134Z,100.00
2022-10-14T23:13:40.987Z,100.00
2022-10-14T23:16:08.565Z,100.00
2022-10-14T23:18:36.617Z,100.00
2022-10-14T23:21:09.584Z,100.00
2022-10-14T23:23:36.279Z,100.00
2022-10-14T23:26:02.941Z,100.00
2022-10-14T23:28:29.630Z,100.00
2022-10-14T23:30:56.340Z,100.00
2022-10-14T23:33:22.878Z,100.00
2022-10-14T23:35:49.485Z,100.00
2022-10-14T23:38:16.047Z,100.00
2022-10-14T23:40:43.049Z,100.00
2022-10-14T23:43:09.615Z,100.00
2022-10-14T23:45:36.202Z,100.00
2022-10-14T23:48:02.784Z,100.00
2022-10-14T23:50:29.374Z,100.00
2022-10-14T23:52:56.026Z,100.00
2022-10-14T23:55:22.565Z,100.00
2022-10-14T23:57:49.175Z,100.00
